sensor_id;sensor_type;location;lat;lon;timestamp;temperature;humidity
67093;SHT31;54011;50.772;7.730;2023-08-20T00:01:24;23.64;78.05
67093;SHT31;54011;50.772;7.730;2023-08-20T00:03:53;23.47;78.44
67093;SHT31;54011;50.772;7.730;2023-08-20T00:06:20;23.47;78.24
67093;SHT31;54011;50.772;7.730;2023-08-20T00:08:47;23.50;77.98
67093;SHT31;54011;50.772;7.730;2023-08-20T00:11:16;23.34;78.15
67093;SHT31;54011;50.772;7.730;2023-08-20T00:13:42;23.34;78.03
67093;SHT31;54011;50.772;7.730;2023-08-20T00:16:09;23.34;78.09
67093;SHT31;54011;50.772;7.730;2023-08-20T00:18:35;23.10;78.84
67093;SHT31;54011;50.772;7.730;2023-08-20T00:21:01;23.17;78.24
67093;SHT31;54011;50.772;7.730;2023-08-20T00:23:27;23.06;78.83
67093;SHT31;54011;50.772;7.730;2023-08-20T00:25:54;23.10;78.58
67093;SHT31;54011;50.772;7.730;2023-08-20T00:28:20;23.34;77.98
67093;SHT31;54011;50.772;7.730;2023-08-20T00:30:46;23.34;77.64
67093;SHT31;54011;50.772;7.730;2023-08-20T00:33:12;23.12;78.44
67093;SHT31;54011;50.772;7.730;2023-08-20T00:35:38;23.12;78.48
67093;SHT31;54011;50.772;7.730;2023-08-20T00:38:04;23.16;78.32
67093;SHT31;54011;50.772;7.730;2023-08-20T00:40:31;23.28;78.04
67093;SHT31;54011;50.772;7.730;2023-08-20T00:42:57;23.17;78.14
67093;SHT31;54011;50.772;7.730;2023-08-20T00:45:24;23.14;78.46
67093;SHT31;54011;50.772;7.730;2023-08-20T00:47:51;23.09;78.51
67093;SHT31;54011;50.772;7.730;2023-08-20T00:50:18;22.92;78.75
67093;SHT31;54011;50.772;7.730;2023-08-20T00:52:45;22.85;79.07
67093;SHT31;54011;50.772;7.730;2023-08-20T00:55:12;22.90;78.95
67093;SHT31;54011;50.772;7.730;2023-08-20T00:57:41;22.82;78.98
67093;SHT31;54011;50.772;7.730;2023-08-20T01:00:08;22.95;78.31
67093;SHT31;54011;50.772;7.730;2023-08-20T01:02:37;22.98;78.09
67093;SHT31;54011;50.772;7.730;2023-08-20T01:05:07;22.88;78.31
67093;SHT31;54011;50.772;7.730;2023-08-20T01:07:45;22.85;78.61
67093;SHT31;54011;50.772;7.730;2023-08-20T01:12:53;22.58;79.36
67093;SHT31;54011;50.772;7.730;2023-08-20T01:15:19;22.71;79.33
67093;SHT31;54011;50.772;7.730;2023-08-20T01:17:45;22.55;79.80
67093;SHT31;54011;50.772;7.730;2023-08-20T01:20:14;22.62;79.23
67093;SHT31;54011;50.772;7.730;2023-08-20T01:28:39;22.69;78.68
67093;SHT31;54011;50.772;7.730;2023-08-20T01:31:07;22.56;78.99
67093;SHT31;54011;50.772;7.730;2023-08-20T01:33:34;22.52;79.01
67093;SHT31;54011;50.772;7.730;2023-08-20T01:36:00;22.37;79.39
67093;SHT31;54011;50.772;7.730;2023-08-20T01:38:27;22.49;79.24
67093;SHT31;54011;50.772;7.730;2023-08-20T01:40:54;22.42;79.64
67093;SHT31;54011;50.772;7.730;2023-08-20T01:43:27;22.15;80.90
67093;SHT31;54011;50.772;7.730;2023-08-20T01:45:54;22.00;81.44
67093;SHT31;54011;50.772;7.730;2023-08-20T01:48:20;22.20;81.06
67093;SHT31;54011;50.772;7.730;2023-08-20T01:50:46;22.24;80.99
67093;SHT31;54011;50.772;7.730;2023-08-20T01:53:12;22.22;80.98
67093;SHT31;54011;50.772;7.730;2023-08-20T01:55:38;22.37;80.25
67093;SHT31;54011;50.772;7.730;2023-08-20T01:58:04;22.05;80.99
67093;SHT31;54011;50.772;7.730;2023-08-20T02:00:30;22.18;80.65
67093;SHT31;54011;50.772;7.730;2023-08-20T02:02:57;22.24;80.22
67093;SHT31;54011;50.772;7.730;2023-08-20T02:05:24;22.21;80.48
67093;SHT31;54011;50.772;7.730;2023-08-20T02:07:50;22.13;80.56
67093;SHT31;54011;50.772;7.730;2023-08-20T02:10:16;22.31;80.21
67093;SHT31;54011;50.772;7.730;2023-08-20T02:12:41;22.08;80.87
67093;SHT31;54011;50.772;7.730;2023-08-20T02:15:08;22.07;80.66
67093;SHT31;54011;50.772;7.730;2023-08-20T02:17:35;21.96;81.07
67093;SHT31;54011;50.772;7.730;2023-08-20T02:20:02;22.13;80.31
67093;SHT31;54011;50.772;7.730;2023-08-20T02:22:36;22.01;80.45
67093;SHT31;54011;50.772;7.730;2023-08-20T02:25:02;22.04;80.29
67093;SHT31;54011;50.772;7.730;2023-08-20T02:27:28;22.14;79.69
67093;SHT31;54011;50.772;7.730;2023-08-20T02:29:54;22.15;79.88
67093;SHT31;54011;50.772;7.730;2023-08-20T02:32:21;21.96;80.42
67093;SHT31;54011;50.772;7.730;2023-08-20T02:34:51;21.87;80.82
67093;SHT31;54011;50.772;7.730;2023-08-20T02:37:17;21.76;81.03
67093;SHT31;54011;50.772;7.730;2023-08-20T02:39:44;21.80;80.78
67093;SHT31;54011;50.772;7.730;2023-08-20T02:42:10;21.79;80.63
67093;SHT31;54011;50.772;7.730;2023-08-20T02:44:36;21.67;80.85
67093;SHT31;54011;50.772;7.730;2023-08-20T02:47:01;21.63;81.16
67093;SHT31;54011;50.772;7.730;2023-08-20T02:49:28;21.57;81.11
67093;SHT31;54011;50.772;7.730;2023-08-20T02:51:54;21.67;80.87
67093;SHT31;54011;50.772;7.730;2023-08-20T02:54:20;21.42;80.30
67093;SHT31;54011;50.772;7.730;2023-08-20T02:56:46;21.29;80.10
67093;SHT31;54011;50.772;7.730;2023-08-20T02:59:12;21.16;79.86
67093;SHT31;54011;50.772;7.730;2023-08-20T03:01:41;21.04;80.06
67093;SHT31;54011;50.772;7.730;2023-08-20T03:04:07;21.06;80.07
67093;SHT31;54011;50.772;7.730;2023-08-20T03:06:33;21.26;79.52
67093;SHT31;54011;50.772;7.730;2023-08-20T03:08:59;21.38;79.55
67093;SHT31;54011;50.772;7.730;2023-08-20T03:11:25;21.21;80.25
67093;SHT31;54011;50.772;7.730;2023-08-20T03:13:51;21.39;79.79
67093;SHT31;54011;50.772;7.730;2023-08-20T03:16:17;21.53;79.58
67093;SHT31;54011;50.772;7.730;2023-08-20T03:18:43;21.66;79.53
67093;SHT31;54011;50.772;7.730;2023-08-20T03:21:09;21.47;79.93
67093;SHT31;54011;50.772;7.730;2023-08-20T03:23:36;21.33;80.27
67093;SHT31;54011;50.772;7.730;2023-08-20T03:26:02;21.36;80.32
67093;SHT31;54011;50.772;7.730;2023-08-20T03:28:28;21.42;80.30
67093;SHT31;54011;50.772;7.730;2023-08-20T03:30:54;21.33;80.63
67093;SHT31;54011;50.772;7.730;2023-08-20T03:33:25;21.43;80.32
67093;SHT31;54011;50.772;7.730;2023-08-20T03:35:52;21.38;80.73
67093;SHT31;54011;50.772;7.730;2023-08-20T03:38:18;21.35;80.73
67093;SHT31;54011;50.772;7.730;2023-08-20T03:40:45;21.36;80.92
67093;SHT31;54011;50.772;7.730;2023-08-20T03:43:11;21.22;80.97
67093;SHT31;54011;50.772;7.730;2023-08-20T03:45:38;21.42;80.72
67093;SHT31;54011;50.772;7.730;2023-08-20T03:48:04;21.46;80.48
67093;SHT31;54011;50.772;7.730;2023-08-20T03:50:30;21.33;80.72
67093;SHT31;54011;50.772;7.730;2023-08-20T03:52:56;21.53;80.17
67093;SHT31;54011;50.772;7.730;2023-08-20T03:55:21;21.47;80.10
67093;SHT31;54011;50.772;7.730;2023-08-20T03:57:47;21.46;80.26
67093;SHT31;54011;50.772;7.730;2023-08-20T04:00:14;21.23;81.11
67093;SHT31;54011;50.772;7.730;2023-08-20T04:02:46;21.41;80.60
67093;SHT31;54011;50.772;7.730;2023-08-20T04:05:12;21.47;80.15
67093;SHT31;54011;50.772;7.730;2023-08-20T04:07:38;21.45;80.11
67093;SHT31;54011;50.772;7.730;2023-08-20T04:10:04;21.53;79.84
67093;SHT31;54011;50.772;7.730;2023-08-20T04:12:30;21.39;80.30
67093;SHT31;54011;50.772;7.730;2023-08-20T04:14:56;21.22;81.03
67093;SHT31;54011;50.772;7.730;2023-08-20T04:17:22;21.38;80.89
67093;SHT31;54011;50.772;7.730;2023-08-20T04:19:50;21.33;81.04
67093;SHT31;54011;50.772;7.730;2023-08-20T04:22:17;21.38;80.66
67093;SHT31;54011;50.772;7.730;2023-08-20T04:24:42;21.47;79.64
67093;SHT31;54011;50.772;7.730;2023-08-20T04:27:14;21.47;79.65
67093;SHT31;54011;50.772;7.730;2023-08-20T04:29:49;21.38;80.01
67093;SHT31;54011;50.772;7.730;2023-08-20T04:32:15;21.39;80.00
67093;SHT31;54011;50.772;7.730;2023-08-20T04:34:41;21.23;80.54
67093;SHT31;54011;50.772;7.730;2023-08-20T04:37:07;21.31;80.32
67093;SHT31;54011;50.772;7.730;2023-08-20T04:39:33;21.35;79.75
67093;SHT31;54011;50.772;7.730;2023-08-20T04:41:59;21.26;79.99
67093;SHT31;54011;50.772;7.730;2023-08-20T04:44:26;21.16;79.98
67093;SHT31;54011;50.772;7.730;2023-08-20T04:46:54;21.29;79.41
67093;SHT31;54011;50.772;7.730;2023-08-20T04:49:20;20.96;80.69
67093;SHT31;54011;50.772;7.730;2023-08-20T04:51:46;20.95;80.55
67093;SHT31;54011;50.772;7.730;2023-08-20T04:54:12;21.18;80.39
67093;SHT31;54011;50.772;7.730;2023-08-20T04:56:38;21.19;80.38
67093;SHT31;54011;50.772;7.730;2023-08-20T04:59:04;21.09;80.70
67093;SHT31;54011;50.772;7.730;2023-08-20T05:02:06;21.33;80.14
67093;SHT31;54011;50.772;7.730;2023-08-20T05:04:40;21.18;80.41
67093;SHT31;54011;50.772;7.730;2023-08-20T05:07:06;21.26;80.61
67093;SHT31;54011;50.772;7.730;2023-08-20T05:09:33;21.38;80.18
67093;SHT31;54011;50.772;7.730;2023-08-20T05:11:59;21.28;80.36
67093;SHT31;54011;50.772;7.730;2023-08-20T05:14:26;21.29;80.50
67093;SHT31;54011;50.772;7.730;2023-08-20T05:16:52;21.38;80.37
67093;SHT31;54011;50.772;7.730;2023-08-20T05:19:17;21.45;80.77
67093;SHT31;54011;50.772;7.730;2023-08-20T05:21:44;21.70;80.27
67093;SHT31;54011;50.772;7.730;2023-08-20T05:24:10;21.38;81.40
67093;SHT31;54011;50.772;7.730;2023-08-20T05:26:36;21.70;81.05
67093;SHT31;54011;50.772;7.730;2023-08-20T05:29:03;21.49;81.56
67093;SHT31;54011;50.772;7.730;2023-08-20T05:31:31;21.69;80.67
67093;SHT31;54011;50.772;7.730;2023-08-20T05:33:58;21.86;79.58
67093;SHT31;54011;50.772;7.730;2023-08-20T05:36:24;21.76;80.47
67093;SHT31;54011;50.772;7.730;2023-08-20T05:38:50;21.66;80.21
67093;SHT31;54011;50.772;7.730;2023-08-20T05:41:17;21.77;80.47
67093;SHT31;54011;50.772;7.730;2023-08-20T05:43:50;21.77;80.56
67093;SHT31;54011;50.772;7.730;2023-08-20T05:46:38;21.69;80.74
67093;SHT31;54011;50.772;7.730;2023-08-20T05:49:06;22.07;79.94
67093;SHT31;54011;50.772;7.730;2023-08-20T05:51:34;22.00;79.85
67093;SHT31;54011;50.772;7.730;2023-08-20T05:54:00;21.76;80.40
67093;SHT31;54011;50.772;7.730;2023-08-20T05:56:29;21.76;80.52
67093;SHT31;54011;50.772;7.730;2023-08-20T05:58:56;21.72;80.33
67093;SHT31;54011;50.772;7.730;2023-08-20T06:01:21;21.67;80.81
67093;SHT31;54011;50.772;7.730;2023-08-20T06:03:48;21.43;81.77
67093;SHT31;54011;50.772;7.730;2023-08-20T06:06:18;21.50;81.70
67093;SHT31;54011;50.772;7.730;2023-08-20T06:08:47;21.90;80.61
67093;SHT31;54011;50.772;7.730;2023-08-20T06:11:13;21.69;81.43
67093;SHT31;54011;50.772;7.730;2023-08-20T06:13:39;21.97;80.49
67093;SHT31;54011;50.772;7.730;2023-08-20T06:16:07;21.94;80.63
67093;SHT31;54011;50.772;7.730;2023-08-20T06:18:33;21.87;80.95
67093;SHT31;54011;50.772;7.730;2023-08-20T06:20:59;21.42;81.98
67093;SHT31;54011;50.772;7.730;2023-08-20T06:23:24;21.72;81.62
67093;SHT31;54011;50.772;7.730;2023-08-20T06:25:51;22.27;80.40
67093;SHT31;54011;50.772;7.730;2023-08-20T06:28:17;22.34;80.20
67093;SHT31;54011;50.772;7.730;2023-08-20T06:30:47;22.48;79.29
67093;SHT31;54011;50.772;7.730;2023-08-20T06:33:12;22.14;80.34
67093;SHT31;54011;50.772;7.730;2023-08-20T06:35:39;22.25;79.54
67093;SHT31;54011;50.772;7.730;2023-08-20T06:38:05;22.41;79.50
67093;SHT31;54011;50.772;7.730;2023-08-20T06:40:30;22.58;78.92
67093;SHT31;54011;50.772;7.730;2023-08-20T06:42:56;22.82;78.78
67093;SHT31;54011;50.772;7.730;2023-08-20T06:45:23;23.12;78.31
67093;SHT31;54011;50.772;7.730;2023-08-20T06:47:49;23.33;77.54
67093;SHT31;54011;50.772;7.730;2023-08-20T06:50:15;23.30;78.23
67093;SHT31;54011;50.772;7.730;2023-08-20T06:52:42;23.27;77.98
67093;SHT31;54011;50.772;7.730;2023-08-20T06:55:08;23.43;77.66
67093;SHT31;54011;50.772;7.730;2023-08-20T06:57:34;23.46;77.35
67093;SHT31;54011;50.772;7.730;2023-08-20T07:00:00;23.24;77.95
67093;SHT31;54011;50.772;7.730;2023-08-20T07:02:26;23.53;77.44
67093;SHT31;54011;50.772;7.730;2023-08-20T07:04:52;23.84;77.04
67093;SHT31;54011;50.772;7.730;2023-08-20T07:07:18;23.86;76.67
67093;SHT31;54011;50.772;7.730;2023-08-20T07:09:45;23.94;76.44
67093;SHT31;54011;50.772;7.730;2023-08-20T07:12:11;23.95;76.73
67093;SHT31;54011;50.772;7.730;2023-08-20T07:14:36;24.29;76.16
67093;SHT31;54011;50.772;7.730;2023-08-20T07:17:03;24.32;75.86
67093;SHT31;54011;50.772;7.730;2023-08-20T07:19:31;24.36;75.61
67093;SHT31;54011;50.772;7.730;2023-08-20T07:21:57;24.63;74.95
67093;SHT31;54011;50.772;7.730;2023-08-20T07:24:23;24.42;75.76
67093;SHT31;54011;50.772;7.730;2023-08-20T07:26:53;24.36;76.06
67093;SHT31;54011;50.772;7.730;2023-08-20T07:29:25;24.49;76.20
67093;SHT31;54011;50.772;7.730;2023-08-20T07:31:54;24.59;75.33
67093;SHT31;54011;50.772;7.730;2023-08-20T07:34:20;24.97;74.19
67093;SHT31;54011;50.772;7.730;2023-08-20T07:36:46;25.12;74.21
67093;SHT31;54011;50.772;7.730;2023-08-20T07:39:13;25.45;73.61
67093;SHT31;54011;50.772;7.730;2023-08-20T07:41:40;25.51;72.81
67093;SHT31;54011;50.772;7.730;2023-08-20T07:44:11;25.53;73.00
67093;SHT31;54011;50.772;7.730;2023-08-20T07:46:37;25.86;72.47
67093;SHT31;54011;50.772;7.730;2023-08-20T07:49:03;25.25;74.42
67093;SHT31;54011;50.772;7.730;2023-08-20T07:51:29;25.27;74.33
67093;SHT31;54011;50.772;7.730;2023-08-20T07:53:56;25.42;74.38
67093;SHT31;54011;50.772;7.730;2023-08-20T07:56:23;25.86;72.63
67093;SHT31;54011;50.772;7.730;2023-08-20T07:58:50;26.10;72.59
67093;SHT31;54011;50.772;7.730;2023-08-20T08:01:16;26.07;72.34
67093;SHT31;54011;50.772;7.730;2023-08-20T08:03:42;26.07;72.15
67093;SHT31;54011;50.772;7.730;2023-08-20T08:06:08;26.20;72.45
67093;SHT31;54011;50.772;7.730;2023-08-20T08:08:34;26.31;71.69
67093;SHT31;54011;50.772;7.730;2023-08-20T08:11:00;26.48;70.47
67093;SHT31;54011;50.772;7.730;2023-08-20T08:13:29;26.45;71.42
67093;SHT31;54011;50.772;7.730;2023-08-20T08:15:55;26.54;71.52
67093;SHT31;54011;50.772;7.730;2023-08-20T08:18:21;26.81;71.76
67093;SHT31;54011;50.772;7.730;2023-08-20T08:20:47;26.96;70.64
67093;SHT31;54011;50.772;7.730;2023-08-20T08:23:13;27.13;69.79
67093;SHT31;54011;50.772;7.730;2023-08-20T08:25:41;27.78;67.75
67093;SHT31;54011;50.772;7.730;2023-08-20T08:28:07;27.98;67.53
67093;SHT31;54011;50.772;7.730;2023-08-20T08:30:37;28.09;67.15
67093;SHT31;54011;50.772;7.730;2023-08-20T08:33:03;28.41;65.83
67093;SHT31;54011;50.772;7.730;2023-08-20T08:35:29;28.96;65.29
67093;SHT31;54011;50.772;7.730;2023-08-20T08:37:59;28.75;65.28
67093;SHT31;54011;50.772;7.730;2023-08-20T08:40:29;29.41;64.05
67093;SHT31;54011;50.772;7.730;2023-08-20T08:42:56;29.44;62.67
67093;SHT31;54011;50.772;7.730;2023-08-20T08:45:23;29.72;61.48
67093;SHT31;54011;50.772;7.730;2023-08-20T08:47:55;29.74;60.67
67093;SHT31;54011;50.772;7.730;2023-08-20T08:50:21;29.62;62.17
67093;SHT31;54011;50.772;7.730;2023-08-20T08:52:51;29.90;61.24
67093;SHT31;54011;50.772;7.730;2023-08-20T08:55:20;30.09;62.29
67093;SHT31;54011;50.772;7.730;2023-08-20T08:57:46;29.54;61.91
67093;SHT31;54011;50.772;7.730;2023-08-20T09:00:12;29.95;61.56
67093;SHT31;54011;50.772;7.730;2023-08-20T09:02:38;29.69;60.98
67093;SHT31;54011;50.772;7.730;2023-08-20T09:05:05;29.74;60.14
67093;SHT31;54011;50.772;7.730;2023-08-20T09:07:32;30.66;59.23
67093;SHT31;54011;50.772;7.730;2023-08-20T09:09:58;30.48;59.21
67093;SHT31;54011;50.772;7.730;2023-08-20T09:12:28;31.04;59.65
67093;SHT31;54011;50.772;7.730;2023-08-20T09:14:55;31.59;56.93
67093;SHT31;54011;50.772;7.730;2023-08-20T09:17:26;31.77;56.72
67093;SHT31;54011;50.772;7.730;2023-08-20T09:19:57;32.34;55.75
67093;SHT31;54011;50.772;7.730;2023-08-20T09:22:23;32.58;54.84
67093;SHT31;54011;50.772;7.730;2023-08-20T09:24:56;31.45;55.70
67093;SHT31;54011;50.772;7.730;2023-08-20T09:27:23;32.71;55.95
67093;SHT31;54011;50.772;7.730;2023-08-20T09:29:55;32.68;56.40
67093;SHT31;54011;50.772;7.730;2023-08-20T09:32:25;32.28;56.53
67093;SHT31;54011;50.772;7.730;2023-08-20T09:34:56;32.24;55.29
67093;SHT31;54011;50.772;7.730;2023-08-20T09:37:31;32.88;55.28
67093;SHT31;54011;50.772;7.730;2023-08-20T09:40:00;32.35;56.19
67093;SHT31;54011;50.772;7.730;2023-08-20T09:42:27;33.32;54.81
67093;SHT31;54011;50.772;7.730;2023-08-20T09:44:59;33.53;53.76
67093;SHT31;54011;50.772;7.730;2023-08-20T09:47:27;33.08;55.40
67093;SHT31;54011;50.772;7.730;2023-08-20T09:49:55;34.27;51.86
67093;SHT31;54011;50.772;7.730;2023-08-20T09:52:29;33.59;52.83
67093;SHT31;54011;50.772;7.730;2023-08-20T09:55:07;34.04;52.54
67093;SHT31;54011;50.772;7.730;2023-08-20T09:57:36;34.18;50.35
67093;SHT31;54011;50.772;7.730;2023-08-20T10:00:04;34.62;48.42
67093;SHT31;54011;50.772;7.730;2023-08-20T10:02:42;34.53;49.21
67093;SHT31;54011;50.772;7.730;2023-08-20T10:05:10;33.77;49.69
67093;SHT31;54011;50.772;7.730;2023-08-20T10:07:36;34.25;49.13
67093;SHT31;54011;50.772;7.730;2023-08-20T10:10:09;33.86;50.50
67093;SHT31;54011;50.772;7.730;2023-08-20T10:12:37;34.80;49.68
67093;SHT31;54011;50.772;7.730;2023-08-20T10:15:05;34.72;48.76
67093;SHT31;54011;50.772;7.730;2023-08-20T10:17:38;33.94;50.96
67093;SHT31;54011;50.772;7.730;2023-08-20T10:20:05;34.90;50.63
67093;SHT31;54011;50.772;7.730;2023-08-20T10:22:42;35.14;49.99
67093;SHT31;54011;50.772;7.730;2023-08-20T10:25:30;34.14;51.45
67093;SHT31;54011;50.772;7.730;2023-08-20T10:28:21;34.66;50.64
67093;SHT31;54011;50.772;7.730;2023-08-20T10:31:10;34.41;49.38
67093;SHT31;54011;50.772;7.730;2023-08-20T10:33:53;34.11;51.09
67093;SHT31;54011;50.772;7.730;2023-08-20T10:36:23;34.86;47.42
67093;SHT31;54011;50.772;7.730;2023-08-20T10:39:04;34.61;48.51
67093;SHT31;54011;50.772;7.730;2023-08-20T10:41:31;35.40;48.39
67093;SHT31;54011;50.772;7.730;2023-08-20T10:44:02;33.71;50.53
67093;SHT31;54011;50.772;7.730;2023-08-20T10:46:29;34.93;47.90
67093;SHT31;54011;50.772;7.730;2023-08-20T10:48:57;34.83;47.97
67093;SHT31;54011;50.772;7.730;2023-08-20T10:51:31;34.34;50.01
67093;SHT31;54011;50.772;7.730;2023-08-20T10:54:09;34.20;49.21
67093;SHT31;54011;50.772;7.730;2023-08-20T10:56:47;34.98;47.50
67093;SHT31;54011;50.772;7.730;2023-08-20T10:59:21;35.77;45.79
67093;SHT31;54011;50.772;7.730;2023-08-20T11:01:49;35.41;47.05
67093;SHT31;54011;50.772;7.730;2023-08-20T11:04:17;35.85;45.67
67093;SHT31;54011;50.772;7.730;2023-08-20T11:06:50;35.65;46.39
67093;SHT31;54011;50.772;7.730;2023-08-20T11:09:17;35.81;45.98
67093;SHT31;54011;50.772;7.730;2023-08-20T11:11:44;35.27;46.79
67093;SHT31;54011;50.772;7.730;2023-08-20T11:14:14;35.89;45.92
67093;SHT31;54011;50.772;7.730;2023-08-20T11:16:42;34.58;48.40
67093;SHT31;54011;50.772;7.730;2023-08-20T11:19:13;35.44;47.10
67093;SHT31;54011;50.772;7.730;2023-08-20T11:21:41;36.08;45.88
67093;SHT31;54011;50.772;7.730;2023-08-20T11:24:08;36.70;45.67
67093;SHT31;54011;50.772;7.730;2023-08-20T11:26:34;35.46;47.60
67093;SHT31;54011;50.772;7.730;2023-08-20T11:29:05;35.74;45.63
67093;SHT31;54011;50.772;7.730;2023-08-20T11:31:31;36.53;44.58
67093;SHT31;54011;50.772;7.730;2023-08-20T11:33:58;35.46;45.85
67093;SHT31;54011;50.772;7.730;2023-08-20T11:36:24;36.87;42.55
67093;SHT31;54011;50.772;7.730;2023-08-20T11:38:51;36.73;43.79
67093;SHT31;54011;50.772;7.730;2023-08-20T11:41:20;36.70;43.76
67093;SHT31;54011;50.772;7.730;2023-08-20T11:43:50;35.78;47.30
67093;SHT31;54011;50.772;7.730;2023-08-20T11:46:18;36.22;45.62
67093;SHT31;54011;50.772;7.730;2023-08-20T11:51:39;36.90;44.03
67093;SHT31;54011;50.772;7.730;2023-08-20T11:54:07;37.33;43.44
67093;SHT31;54011;50.772;7.730;2023-08-20T11:56:34;36.82;43.33
67093;SHT31;54011;50.772;7.730;2023-08-20T11:59:01;36.83;43.15
67093;SHT31;54011;50.772;7.730;2023-08-20T12:01:33;36.90;45.07
67093;SHT31;54011;50.772;7.730;2023-08-20T12:04:10;36.97;44.28
67093;SHT31;54011;50.772;7.730;2023-08-20T12:06:37;37.41;43.03
67093;SHT31;54011;50.772;7.730;2023-08-20T12:09:20;37.14;39.72
67093;SHT31;54011;50.772;7.730;2023-08-20T12:11:54;36.80;42.27
67093;SHT31;54011;50.772;7.730;2023-08-20T12:14:24;37.42;42.92
67093;SHT31;54011;50.772;7.730;2023-08-20T12:16:53;37.85;41.20
67093;SHT31;54011;50.772;7.730;2023-08-20T12:19:19;38.77;39.80
67093;SHT31;54011;50.772;7.730;2023-08-20T12:21:46;37.62;41.38
67093;SHT31;54011;50.772;7.730;2023-08-20T12:24:12;38.23;41.04
67093;SHT31;54011;50.772;7.730;2023-08-20T12:26:39;37.18;43.19
67093;SHT31;54011;50.772;7.730;2023-08-20T12:29:06;36.69;43.95
67093;SHT31;54011;50.772;7.730;2023-08-20T12:31:33;37.10;42.44
67093;SHT31;54011;50.772;7.730;2023-08-20T12:33:59;38.16;42.87
67093;SHT31;54011;50.772;7.730;2023-08-20T12:36:25;38.66;39.64
67093;SHT31;54011;50.772;7.730;2023-08-20T12:38:52;38.30;40.74
67093;SHT31;54011;50.772;7.730;2023-08-20T12:41:22;39.01;40.22
67093;SHT31;54011;50.772;7.730;2023-08-20T12:43:48;38.60;40.65
67093;SHT31;54011;50.772;7.730;2023-08-20T12:46:14;38.62;41.88
67093;SHT31;54011;50.772;7.730;2023-08-20T12:48:40;36.73;43.26
67093;SHT31;54011;50.772;7.730;2023-08-20T12:51:06;37.10;42.26
67093;SHT31;54011;50.772;7.730;2023-08-20T12:53:34;36.65;42.08
67093;SHT31;54011;50.772;7.730;2023-08-20T12:56:00;37.86;40.75
67093;SHT31;54011;50.772;7.730;2023-08-20T12:58:26;37.25;43.07
67093;SHT31;54011;50.772;7.730;2023-08-20T13:00:55;36.49;41.11
67093;SHT31;54011;50.772;7.730;2023-08-20T13:03:21;37.47;42.54
67093;SHT31;54011;50.772;7.730;2023-08-20T13:05:48;39.19;40.70
67093;SHT31;54011;50.772;7.730;2023-08-20T13:08:23;39.25;40.96
67093;SHT31;54011;50.772;7.730;2023-08-20T13:10:54;39.07;40.89
67093;SHT31;54011;50.772;7.730;2023-08-20T13:13:23;37.90;42.87
67093;SHT31;54011;50.772;7.730;2023-08-20T13:15:50;38.74;40.39
67093;SHT31;54011;50.772;7.730;2023-08-20T13:18:17;39.05;39.78
67093;SHT31;54011;50.772;7.730;2023-08-20T13:20:43;38.81;40.81
67093;SHT31;54011;50.772;7.730;2023-08-20T13:23:09;38.30;42.34
67093;SHT31;54011;50.772;7.730;2023-08-20T13:25:35;38.06;42.44
67093;SHT31;54011;50.772;7.730;2023-08-20T13:28:02;39.10;41.42
67093;SHT31;54011;50.772;7.730;2023-08-20T13:30:28;39.56;41.18
67093;SHT31;54011;50.772;7.730;2023-08-20T13:32:57;39.88;40.79
67093;SHT31;54011;50.772;7.730;2023-08-20T13:35:25;39.53;41.52
67093;SHT31;54011;50.772;7.730;2023-08-20T13:38:31;39.02;40.85
67093;SHT31;54011;50.772;7.730;2023-08-20T13:41:00;38.62;41.73
67093;SHT31;54011;50.772;7.730;2023-08-20T13:43:26;38.68;41.78
67093;SHT31;54011;50.772;7.730;2023-08-20T13:45:55;38.47;41.39
67093;SHT31;54011;50.772;7.730;2023-08-20T13:48:21;37.76;41.02
67093;SHT31;54011;50.772;7.730;2023-08-20T13:50:46;38.17;40.69
67093;SHT31;54011;50.772;7.730;2023-08-20T13:53:12;38.83;39.80
67093;SHT31;54011;50.772;7.730;2023-08-20T13:55:39;39.70;39.58
67093;SHT31;54011;50.772;7.730;2023-08-20T13:58:04;38.90;43.51
67093;SHT31;54011;50.772;7.730;2023-08-20T14:00:30;37.10;41.26
67093;SHT31;54011;50.772;7.730;2023-08-20T14:02:57;39.55;39.86
67093;SHT31;54011;50.772;7.730;2023-08-20T14:05:22;40.24;39.40
67093;SHT31;54011;50.772;7.730;2023-08-20T14:07:48;39.24;41.51
67093;SHT31;54011;50.772;7.730;2023-08-20T14:10:13;39.21;39.87
67093;SHT31;54011;50.772;7.730;2023-08-20T14:12:39;38.98;41.42
67093;SHT31;54011;50.772;7.730;2023-08-20T14:15:06;39.24;41.58
67093;SHT31;54011;50.772;7.730;2023-08-20T14:17:33;39.46;40.43
67093;SHT31;54011;50.772;7.730;2023-08-20T14:19:58;39.61;40.26
67093;SHT31;54011;50.772;7.730;2023-08-20T14:22:25;40.23;38.68
67093;SHT31;54011;50.772;7.730;2023-08-20T14:24:51;40.62;38.43
67093;SHT31;54011;50.772;7.730;2023-08-20T14:27:21;39.15;40.00
67093;SHT31;54011;50.772;7.730;2023-08-20T14:29:47;39.88;39.60
67093;SHT31;54011;50.772;7.730;2023-08-20T14:32:13;39.42;40.29
67093;SHT31;54011;50.772;7.730;2023-08-20T14:34:39;39.05;40.78
67093;SHT31;54011;50.772;7.730;2023-08-20T14:37:04;40.75;40.64
67093;SHT31;54011;50.772;7.730;2023-08-20T14:39:31;40.68;40.87
67093;SHT31;54011;50.772;7.730;2023-08-20T14:41:58;38.97;41.75
67093;SHT31;54011;50.772;7.730;2023-08-20T14:44:23;39.74;41.76
67093;SHT31;54011;50.772;7.730;2023-08-20T14:46:50;40.02;41.14
67093;SHT31;54011;50.772;7.730;2023-08-20T14:49:16;38.11;43.82
67093;SHT31;54011;50.772;7.730;2023-08-20T14:51:44;38.01;43.87
67093;SHT31;54011;50.772;7.730;2023-08-20T14:54:09;38.88;42.53
67093;SHT31;54011;50.772;7.730;2023-08-20T14:56:35;39.31;40.66
67093;SHT31;54011;50.772;7.730;2023-08-20T14:59:01;39.82;40.05
67093;SHT31;54011;50.772;7.730;2023-08-20T15:01:26;40.34;40.84
67093;SHT31;54011;50.772;7.730;2023-08-20T15:03:52;39.97;39.35
67093;SHT31;54011;50.772;7.730;2023-08-20T15:06:18;40.50;39.92
67093;SHT31;54011;50.772;7.730;2023-08-20T15:08:47;39.61;40.15
67093;SHT31;54011;50.772;7.730;2023-08-20T15:11:15;39.05;41.57
67093;SHT31;54011;50.772;7.730;2023-08-20T15:13:41;39.21;41.56
67093;SHT31;54011;50.772;7.730;2023-08-20T15:16:07;38.62;41.78
67093;SHT31;54011;50.772;7.730;2023-08-20T15:18:33;38.75;41.18
67093;SHT31;54011;50.772;7.730;2023-08-20T15:21:00;38.71;41.37
67093;SHT31;54011;50.772;7.730;2023-08-20T15:23:28;39.51;40.58
67093;SHT31;54011;50.772;7.730;2023-08-20T15:25:55;39.48;40.42
67093;SHT31;54011;50.772;7.730;2023-08-20T15:28:23;38.78;41.52
67093;SHT31;54011;50.772;7.730;2023-08-20T15:30:53;39.38;41.62
67093;SHT31;54011;50.772;7.730;2023-08-20T15:33:22;39.62;40.55
67093;SHT31;54011;50.772;7.730;2023-08-20T15:35:48;39.26;41.71
67093;SHT31;54011;50.772;7.730;2023-08-20T15:38:14;39.93;40.93
67093;SHT31;54011;50.772;7.730;2023-08-20T15:40:40;40.06;41.17
67093;SHT31;54011;50.772;7.730;2023-08-20T15:43:06;38.84;42.73
67093;SHT31;54011;50.772;7.730;2023-08-20T15:45:32;37.62;43.25